Time;durP1;ratioP1;P1;durP2;ratioP2;P2;SDS_P1;SDS_P2;PMS_P1;PMS_P2;Temp;Humidity;BMP_temperature;BMP_pressure;BME280_temperature;BME280_humidity;BME280_pressure;Samples;Min_cycle;Max_cycle;Signal;HPM_P1;HPM_P2
2022/06/12 00:00:09;;;;;;;13.15;3.05;;;13.80;99.90;;;;;;5016656;28;20046;-78
2022/06/12 00:02:34;;;;;;;11.48;3.10;;;13.80;99.90;;;;;;5002463;28;20173;-78
2022/06/12 00:05:00;;;;;;;17.67;3.20;;;13.70;99.90;;;;;;4997317;28;20168;-81
2022/06/12 00:07:26;;;;;;;13.18;3.20;;;13.70;99.90;;;;;;4995890;28;20077;-80
2022/06/12 00:09:51;;;;;;;14.48;2.95;;;13.70;99.90;;;;;;5006149;28;20053;-80
2022/06/12 00:12:18;;;;;;;16.58;3.03;;;13.70;99.90;;;;;;5009290;28;20080;-81
2022/06/12 00:14:44;;;;;;;12.68;2.97;;;13.70;99.90;;;;;;5016056;28;20069;-81
2022/06/12 00:17:10;;;;;;;14.98;3.15;;;13.80;99.90;;;;;;5012552;28;20467;-80
2022/06/12 00:19:37;;;;;;;10.68;2.95;;;13.50;99.90;;;;;;4995649;28;20046;-81
2022/06/12 00:22:03;;;;;;;13.25;3.30;;;13.50;99.90;;;;;;4995825;28;20129;-81
2022/06/12 00:24:29;;;;;;;20.00;3.72;;;13.50;99.90;;;;;;5013433;28;20362;-81
2022/06/12 00:26:57;;;;;;;17.42;3.75;;;13.60;99.90;;;;;;5011468;28;20050;-81
2022/06/12 00:29:31;;;;;;;13.68;4.05;;;13.50;99.90;;;;;;4995338;28;20056;-81
2022/06/12 00:32:01;;;;;;;14.82;3.65;;;13.40;99.90;;;;;;5013110;28;20080;-81
2022/06/12 00:34:31;;;;;;;13.75;3.70;;;13.40;99.90;;;;;;4994929;28;20092;-83
2022/06/12 00:36:57;;;;;;;15.85;3.50;;;13.30;99.90;;;;;;4994897;28;20372;-83
2022/06/12 00:39:23;;;;;;;16.85;3.83;;;13.30;99.90;;;;;;5011584;28;20050;-83
2022/06/12 00:41:52;;;;;;;11.75;3.00;;;13.30;99.90;;;;;;5011516;28;20508;-83
2022/06/12 00:44:23;;;;;;;13.85;3.47;;;13.20;99.90;;;;;;4995690;28;20437;-82
2022/06/12 00:46:57;;;;;;;14.10;3.13;;;13.20;99.90;;;;;;4995390;28;20085;-82
2022/06/12 00:49:24;;;;;;;14.27;3.58;;;13.20;99.90;;;;;;4994891;28;20168;-82
2022/06/12 00:51:59;;;;;;;12.70;3.30;;;13.20;99.90;;;;;;4994829;28;20045;-81
2022/06/12 00:54:25;;;;;;;12.73;2.83;;;13.10;99.90;;;;;;4994648;28;20104;-81
2022/06/12 00:56:57;;;;;;;12.80;2.67;;;13.10;99.90;;;;;;5011423;28;20373;-83
2022/06/12 00:59:42;;;;;;;12.80;2.83;;;13.10;99.90;;;;;;4995485;28;20558;-82
2022/06/12 01:02:24;;;;;;;10.60;2.45;;;13.00;99.90;;;;;;4995482;28;20050;-80
2022/06/12 01:07:40;;;;;;;12.60;3.08;;;13.00;99.90;;;;;;5010951;28;20053;-81
2022/06/12 01:10:11;;;;;;;13.52;2.67;;;13.00;99.90;;;;;;5027938;28;20045;-82
2022/06/12 01:12:43;;;;;;;9.73;2.70;;;12.90;99.90;;;;;;5010477;28;20054;-81
2022/06/12 01:15:18;;;;;;;12.38;2.60;;;12.90;99.90;;;;;;5027559;28;20118;-82
2022/06/12 01:17:44;;;;;;;12.55;2.67;;;12.90;99.90;;;;;;5012336;28;20045;-81
2022/06/12 01:20:15;;;;;;;14.05;3.00;;;13.00;99.90;;;;;;5012490;28;20112;-81
2022/06/12 01:22:50;;;;;;;14.93;3.05;;;12.90;99.90;;;;;;5010717;28;20046;-81
2022/06/12 01:25:25;;;;;;;16.40;2.72;;;12.90;99.90;;;;;;4994840;28;20096;-81
2022/06/12 01:28:16;;;;;;;13.88;2.50;;;12.80;99.90;;;;;;5010870;28;20049;-81
2022/06/12 01:30:51;;;;;;;10.82;2.72;;;12.80;99.90;;;;;;5016133;28;20054;-78
2022/06/12 01:33:36;;;;;;;15.30;3.00;;;12.80;99.90;;;;;;5015421;28;20049;-78
2022/06/12 01:36:13;;;;;;;10.70;2.58;;;12.80;99.90;;;;;;5011832;28;20038;-82
2022/06/12 01:39:09;;;;;;;12.32;2.65;;;12.70;99.90;;;;;;5010833;28;20099;-81
2022/06/12 01:41:46;;;;;;;10.40;2.53;;;12.70;99.90;;;;;;5027340;28;20046;-81
2022/06/12 01:44:22;;;;;;;18.05;3.00;;;12.70;99.90;;;;;;5026986;28;20119;-82
2022/06/12 01:46:52;;;;;;;7.40;2.63;;;12.70;99.90;;;;;;5010581;28;20044;-82
2022/06/12 01:49:38;;;;;;;14.93;2.95;;;12.70;99.90;;;;;;4994052;28;20049;-82
2022/06/12 01:52:18;;;;;;;14.88;3.15;;;12.70;99.90;;;;;;5026730;28;20481;-83
2022/06/12 01:55:01;;;;;;;7.55;2.53;;;12.60;99.90;;;;;;5011094;28;20108;-82
2022/06/12 01:57:38;;;;;;;6.68;2.60;;;12.60;99.90;;;;;;5010596;28;20125;-81
2022/06/12 02:00:08;;;;;;;11.18;2.45;;;12.60;99.90;;;;;;4994299;28;20096;-82
2022/06/12 02:02:36;;;;;;;12.18;2.85;;;12.60;99.90;;;;;;5010841;28;20130;-81
2022/06/12 02:05:23;;;;;;;15.23;2.85;;;12.60;99.90;;;;;;5011575;28;20034;-81
2022/06/12 02:08:08;;;;;;;9.40;2.50;;;12.50;99.90;;;;;;4993946;28;20052;-82
2022/06/12 02:10:35;;;;;;;12.73;2.88;;;12.50;99.90;;;;;;4994450;28;20061;-82
2022/06/12 02:13:27;;;;;;;15.60;3.22;;;12.50;99.90;;;;;;5010672;28;20074;-82
2022/06/12 02:16:06;;;;;;;11.23;2.95;;;12.40;99.90;;;;;;5010536;28;20046;-83
2022/06/12 02:19:01;;;;;;;15.00;3.08;;;12.40;99.90;;;;;;5010356;28;20057;-83
2022/06/12 02:21:37;;;;;;;;;;;12.40;99.90;;;;;;4974135;28;20043;-82
2022/06/12 02:24:20;;;;;;;13.77;2.80;;;12.40;99.90;;;;;;4960421;29;19922;-83
2022/06/12 02:26:57;;;;;;;12.18;2.88;;;12.40;99.90;;;;;;4975765;28;20035;-82
2022/06/12 02:29:45;;;;;;;11.65;2.65;;;12.40;99.90;;;;;;4933886;29;20110;-81
2022/06/12 02:32:18;;;;;;;10.10;2.65;;;12.30;99.90;;;;;;4937167;29;20043;-82
2022/06/12 02:34:57;;;;;;;8.95;2.70;;;12.30;99.90;;;;;;4943191;29;20054;-82
2022/06/12 02:37:28;;;;;;;14.07;2.97;;;12.30;99.90;;;;;;4919955;29;20172;-80
2022/06/12 02:40:02;;;;;;;14.77;2.63;;;12.30;99.90;;;;;;4935813;29;20058;-82
2022/06/12 02:42:37;;;;;;;10.23;2.88;;;12.40;99.90;;;;;;4913667;29;20121;-82
2022/06/12 02:45:17;;;;;;;11.98;2.63;;;12.40;99.90;;;;;;4916853;29;20078;-83
2022/06/12 02:47:45;;;;;;;15.75;3.38;;;12.30;99.90;;;;;;4931848;29;20043;-82
2022/06/12 02:50:16;;;;;;;15.52;2.60;;;12.30;99.90;;;;;;4931404;29;20051;-82
2022/06/12 02:53:03;;;;;;;11.65;2.72;;;12.30;99.90;;;;;;4915505;29;20115;-82
2022/06/12 02:56:06;;;;;;;13.77;3.05;;;12.20;99.90;;;;;;4936204;29;20135;-80
2022/06/12 02:58:35;;;;;;;9.60;2.95;;;12.20;99.90;;;;;;4942299;28;20042;-81
2022/06/12 03:01:12;;;;;;;13.05;3.15;;;12.20;99.90;;;;;;4958660;28;20046;-82
2022/06/12 03:03:52;;;;;;;19.05;3.08;;;12.20;99.90;;;;;;4974476;28;20471;-81
2022/06/12 03:06:19;;;;;;;11.60;2.50;;;12.20;99.90;;;;;;4979184;28;20124;-81
2022/06/12 03:08:49;;;;;;;16.13;3.10;;;12.20;99.90;;;;;;4997630;28;20049;-81
2022/06/12 03:11:35;;;;;;;10.77;2.90;;;12.20;99.90;;;;;;4997363;28;20046;-82
2022/06/12 03:14:04;;;;;;;17.30;3.22;;;12.20;99.90;;;;;;4997280;28;20038;-82
2022/06/12 03:16:33;;;;;;;16.85;2.75;;;12.20;99.90;;;;;;5013973;28;20120;-82
2022/06/12 03:19:05;;;;;;;9.82;2.78;;;12.20;99.90;;;;;;4997514;28;20489;-82
2022/06/12 03:21:49;;;;;;;13.63;3.05;;;12.20;99.90;;;;;;4996582;28;20121;-81
2022/06/12 03:24:28;;;;;;;15.45;3.42;;;12.20;99.90;;;;;;5013236;28;20057;-82
2022/06/12 03:27:08;;;;;;;12.52;3.20;;;12.10;99.90;;;;;;4980391;28;20061;-82
2022/06/12 03:29:55;;;;;;;8.90;2.20;;;12.30;99.90;;;;;;4996775;28;20077;-83
2022/06/12 03:32:41;;;;;;;10.80;3.00;;;12.20;99.90;;;;;;4997134;28;20100;-83
2022/06/12 03:35:13;;;;;;;14.23;2.90;;;12.30;99.90;;;;;;4981164;28;20052;-83
2022/06/12 03:37:51;;;;;;;15.18;3.55;;;12.30;99.90;;;;;;4996400;28;20794;-82
2022/06/12 03:40:29;;;;;;;23.90;3.50;;;12.30;99.90;;;;;;4996714;28;20346;-83
2022/06/12 03:43:07;;;;;;;13.77;3.08;;;12.30;99.90;;;;;;4996542;28;20053;-80
2022/06/12 03:46:10;;;;;;;14.57;2.97;;;12.30;99.90;;;;;;5012253;28;20141;-79
2022/06/12 03:49:13;;;;;;;9.95;2.70;;;12.40;99.90;;;;;;5013055;28;20078;-81
2022/06/12 03:51:49;;;;;;;13.48;3.13;;;12.40;99.90;;;;;;5012307;28;20092;-81
2022/06/12 03:54:34;;;;;;;13.60;2.60;;;12.40;99.90;;;;;;4996976;28;20041;-82
2022/06/12 04:00:18;;;;;;;10.20;2.55;;;12.50;99.90;;;;;;5014216;28;20046;-82
2022/06/12 04:02:49;;;;;;;12.15;2.67;;;12.70;99.90;;;;;;5012666;28;20045;-83
2022/06/12 04:05:24;;;;;;;12.10;2.78;;;12.70;99.90;;;;;;5012223;28;20042;-82
2022/06/12 04:07:52;;;;;;;;;;;12.80;99.90;;;;;;5000923;28;20456;-82
2022/06/12 04:10:22;;;;;;;11.93;2.63;;;12.80;99.90;;;;;;4995666;28;19924;-83
2022/06/12 04:12:50;;;;;;;14.02;2.80;;;12.90;99.90;;;;;;4996430;28;20095;-82
2022/06/12 04:15:40;;;;;;;13.23;2.95;;;13.00;99.90;;;;;;5012893;28;20477;-83
2022/06/12 04:18:07;;;;;;;14.27;3.20;;;13.10;99.90;;;;;;5012558;28;20081;-83
2022/06/12 04:21:13;;;;;;;19.15;2.95;;;13.20;99.90;;;;;;5013225;28;20046;-80
2022/06/12 04:24:07;;;;;;;12.00;2.72;;;13.50;99.90;;;;;;4941975;29;20103;-80
2022/06/12 04:26:44;;;;;;;14.20;2.65;;;13.70;99.90;;;;;;4925764;29;20054;-78
2022/06/12 04:29:12;;;;;;;16.13;3.10;;;14.00;99.90;;;;;;4953490;29;20082;-82
2022/06/12 04:31:41;;;;;;;12.07;2.33;;;14.30;99.90;;;;;;4936877;29;20155;-82
2022/06/12 04:34:28;;;;;;;14.23;2.70;;;14.50;99.90;;;;;;4936977;29;20082;-82
2022/06/12 04:37:03;;;;;;;13.98;2.80;;;15.10;99.90;;;;;;4936805;29;20233;-82
2022/06/12 04:39:31;;;;;;;13.68;3.17;;;15.40;99.90;;;;;;4952989;29;20090;-82
2022/06/12 04:41:58;;;;;;;15.43;3.35;;;15.30;99.90;;;;;;4934658;29;20398;-82
2022/06/12 04:44:24;;;;;;;10.60;2.50;;;15.10;99.90;;;;;;4917540;29;20051;-80
2022/06/12 04:46:52;;;;;;;11.05;2.53;;;14.90;99.90;;;;;;4917647;29;20131;-82
2022/06/12 04:49:21;;;;;;;12.48;2.60;;;14.80;99.90;;;;;;4917629;29;20048;-82
2022/06/12 04:51:48;;;;;;;9.38;2.45;;;14.80;99.90;;;;;;4916855;29;20124;-82
2022/06/12 04:54:14;;;;;;;12.52;2.70;;;15.30;99.90;;;;;;4933670;29;20051;-80
2022/06/12 04:56:40;;;;;;;16.23;2.78;;;15.10;99.90;;;;;;4934445;28;20084;-82
2022/06/12 04:59:12;;;;;;;13.73;2.45;;;15.20;99.90;;;;;;4979102;28;20531;-81
2022/06/12 05:01:38;;;;;;;13.95;3.08;;;15.20;99.90;;;;;;4994964;28;20075;-82
2022/06/12 05:04:05;;;;;;;14.18;2.42;;;14.90;99.90;;;;;;4995026;28;20046;-82
2022/06/12 05:06:32;;;;;;;14.77;2.55;;;14.60;99.90;;;;;;4993965;28;20033;-82
2022/06/12 05:08:57;;;;;;;12.10;2.72;;;14.70;99.90;;;;;;4994965;28;20042;-83
2022/06/12 05:11:24;;;;;;;13.80;3.08;;;14.70;99.90;;;;;;5011297;28;20050;-82
2022/06/12 05:13:50;;;;;;;15.02;2.80;;;14.70;99.90;;;;;;5011420;28;20559;-82
2022/06/12 05:16:31;;;;;;;17.20;2.60;;;14.80;99.90;;;;;;5012627;28;20106;-82
2022/06/12 05:18:58;;;;;;;13.55;2.92;;;14.80;99.90;;;;;;5011384;28;20046;-82
2022/06/12 05:21:25;;;;;;;19.58;3.50;;;14.90;99.90;;;;;;4994224;28;20081;-82
2022/06/12 05:23:51;;;;;;;15.00;3.45;;;14.90;99.90;;;;;;5011316;28;20101;-81
2022/06/12 05:26:18;;;;;;;14.20;2.72;;;15.00;99.90;;;;;;4994886;28;20116;-82
2022/06/12 05:28:44;;;;;;;12.68;3.25;;;15.10;99.90;;;;;;4994902;28;20081;-82
2022/06/12 05:31:09;;;;;;;18.13;3.42;;;15.20;99.90;;;;;;4978537;28;20065;-82
2022/06/12 05:33:37;;;;;;;19.20;3.45;;;15.10;99.90;;;;;;5026344;28;20057;-82
2022/06/12 05:36:04;;;;;;;17.42;3.42;;;15.20;99.90;;;;;;5012173;28;20050;-82
2022/06/12 05:39:25;;;;;;;19.35;3.65;;;15.20;99.90;;;;;;4994708;28;20107;-82
2022/06/12 05:41:52;;;;;;;24.48;4.55;;;15.20;99.90;;;;;;5027684;28;20141;-81
2022/06/12 05:44:19;;;;;;;21.05;4.28;;;15.30;99.90;;;;;;4994564;28;20053;-82
2022/06/12 05:46:45;;;;;;;19.17;3.78;;;15.30;99.90;;;;;;4994654;28;20034;-82
2022/06/12 05:49:15;;;;;;;25.50;4.57;;;15.30;99.90;;;;;;5011551;28;20045;-81
2022/06/12 05:51:41;;;;;;;29.67;4.53;;;15.50;99.90;;;;;;5010774;28;20034;-82
2022/06/12 05:54:07;;;;;;;28.45;4.70;;;15.40;99.90;;;;;;4994757;28;20038;-81
2022/06/12 05:56:34;;;;;;;20.35;4.13;;;15.50;99.90;;;;;;4999096;28;20115;-82
2022/06/12 05:59:00;;;;;;;29.20;5.20;;;15.60;99.90;;;;;;5027424;28;20053;-81
2022/06/12 06:01:27;;;;;;;27.33;4.80;;;15.70;99.90;;;;;;4995066;28;20073;-81
2022/06/12 06:03:53;;;;;;;32.45;5.15;;;15.80;99.90;;;;;;5010878;28;20042;-81
2022/06/12 06:06:24;;;;;;;26.15;5.22;;;15.80;99.90;;;;;;5010206;28;20046;-82
2022/06/12 06:08:51;;;;;;;30.88;5.40;;;16.00;99.90;;;;;;5027057;28;20095;-82
2022/06/12 06:11:16;;;;;;;26.58;5.03;;;16.10;99.90;;;;;;5010606;28;20121;-81
2022/06/12 06:13:46;;;;;;;23.38;4.82;;;16.10;99.90;;;;;;4994605;28;20187;-82
2022/06/12 06:16:12;;;;;;;29.13;5.45;;;16.30;99.90;;;;;;4994588;28;20045;-82
2022/06/12 06:18:40;;;;;;;31.02;5.05;;;16.30;99.90;;;;;;5012315;28;20046;-82
2022/06/12 06:21:15;;;;;;;30.85;5.72;;;16.50;99.90;;;;;;5026550;28;20073;-82
2022/06/12 06:23:50;;;;;;;22.27;5.18;;;16.40;99.90;;;;;;4978237;28;20484;-82
2022/06/12 06:26:16;;;;;;;;;;;16.60;99.90;;;;;;4994797;28;20037;-83
2022/06/12 06:28:44;;;;;;;33.25;5.90;;;16.60;99.90;;;;;;5010575;28;19921;-81
2022/06/12 06:31:10;;;;;;;25.10;5.10;;;16.60;99.90;;;;;;5010317;28;20499;-83
2022/06/12 06:33:36;;;;;;;24.55;5.07;;;16.70;99.90;;;;;;5027594;28;20362;-81
2022/06/12 06:36:02;;;;;;;23.77;4.93;;;16.70;99.90;;;;;;5030476;28;20038;-82
2022/06/12 06:38:31;;;;;;;23.45;4.78;;;16.50;99.90;;;;;;4998399;28;20037;-81
2022/06/12 06:40:56;;;;;;;27.60;6.35;;;16.60;99.90;;;;;;4997915;28;20052;-82
2022/06/12 06:43:22;;;;;;;24.38;5.22;;;16.60;99.90;;;;;;4993882;28;20054;-83
2022/06/12 06:48:32;;;;;;;25.45;5.35;;;16.70;99.90;;;;;;4994896;28;20065;-83
2022/06/12 06:50:58;;;;;;;29.65;5.78;;;16.80;99.90;;;;;;4978452;28;20448;-82
2022/06/12 06:53:24;;;;;;;29.70;6.00;;;16.80;99.90;;;;;;4994365;28;20407;-81
2022/06/12 06:55:50;;;;;;;23.90;4.72;;;16.90;99.90;;;;;;4980233;28;20148;-81
2022/06/12 06:58:24;;;;;;;35.25;6.10;;;17.00;99.90;;;;;;5013974;28;20483;-81
2022/06/12 07:00:51;;;;;;;29.00;5.43;;;17.10;99.90;;;;;;4982078;28;20436;-82
2022/06/12 07:03:17;;;;;;;24.10;5.82;;;17.10;99.90;;;;;;5013986;28;20123;-81
2022/06/12 07:05:45;;;;;;;28.80;5.95;;;17.10;99.90;;;;;;4997177;28;20136;-81
2022/06/12 07:08:13;;;;;;;24.05;5.78;;;17.30;99.90;;;;;;4997626;28;20037;-82
2022/06/12 07:11:35;;;;;;;26.63;6.35;;;17.30;99.90;;;;;;5029997;28;20116;-83
2022/06/12 07:14:00;;;;;;;25.92;5.45;;;17.50;99.90;;;;;;5013821;28;20049;-82
2022/06/12 07:16:29;;;;;;;26.17;5.32;;;17.60;99.90;;;;;;4997683;28;20064;-81
2022/06/12 07:18:55;;;;;;;27.63;5.72;;;17.70;99.90;;;;;;4981246;28;20041;-81
2022/06/12 07:21:24;;;;;;;27.25;5.82;;;17.70;99.90;;;;;;5015710;28;20042;-79
2022/06/12 07:24:13;;;;;;;24.70;5.63;;;17.80;99.90;;;;;;5032678;28;20375;-81
2022/06/12 07:26:42;;;;;;;27.40;5.18;;;17.90;99.90;;;;;;5013388;28;20057;-82
2022/06/12 07:29:09;;;;;;;24.05;4.57;;;17.90;99.90;;;;;;4996641;28;20050;-82
2022/06/12 07:31:35;;;;;;;20.50;4.05;;;18.00;99.90;;;;;;5029923;28;20429;-82
2022/06/12 07:34:01;;;;;;;21.33;4.50;;;18.10;99.90;;;;;;5013334;28;20141;-83
2022/06/12 07:36:29;;;;;;;21.33;3.80;;;18.20;99.90;;;;;;4996300;28;20141;-82
2022/06/12 07:39:22;;;;;;;23.63;4.18;;;18.30;99.90;;;;;;5013556;28;20107;-81
2022/06/12 07:41:50;;;;;;;24.75;4.70;;;18.40;99.90;;;;;;4997088;28;20034;-81
2022/06/12 07:44:20;;;;;;;28.02;4.80;;;18.50;99.90;;;;;;4996729;28;20073;-82
2022/06/12 07:46:47;;;;;;;15.73;3.75;;;18.50;99.90;;;;;;5012394;28;20100;-81
2022/06/12 07:49:17;;;;;;;20.30;4.07;;;18.50;99.90;;;;;;5013439;28;20131;-82
2022/06/12 07:51:43;;;;;;;23.10;4.10;;;18.60;99.90;;;;;;5012650;28;20124;-82
2022/06/12 07:54:09;;;;;;;24.60;4.53;;;18.60;99.90;;;;;;5013110;28;20460;-82
2022/06/12 07:56:36;;;;;;;19.63;3.40;;;18.70;99.90;;;;;;5007705;28;20076;-81
2022/06/12 07:59:03;;;;;;;17.73;3.90;;;18.80;99.90;;;;;;5012819;28;20489;-81
2022/06/12 08:01:30;;;;;;;19.88;4.00;;;18.90;99.90;;;;;;5012636;28;20046;-82
2022/06/12 08:03:56;;;;;;;24.00;4.15;;;19.10;99.90;;;;;;5012833;28;20049;-82
2022/06/12 08:06:22;;;;;;;20.20;4.10;;;19.20;99.90;;;;;;4992209;28;20030;-82
2022/06/12 08:09:02;;;;;;;18.67;3.83;;;19.30;99.90;;;;;;4992889;28;20111;-82
2022/06/12 08:11:27;;;;;;;21.20;4.10;;;19.30;99.90;;;;;;5014369;28;20061;-81
2022/06/12 08:13:54;;;;;;;21.38;3.85;;;19.20;99.90;;;;;;5016837;28;20058;-82
2022/06/12 08:16:21;;;;;;;14.43;3.63;;;19.30;99.90;;;;;;5016866;28;20026;-81
2022/06/12 08:18:47;;;;;;;21.73;4.13;;;19.60;99.90;;;;;;5017191;28;20062;-82
2022/06/12 08:21:15;;;;;;;19.45;3.92;;;19.80;99.90;;;;;;5016566;28;20090;-81
2022/06/12 08:23:48;;;;;;;20.83;3.97;;;20.00;99.90;;;;;;5016133;28;20034;-82
2022/06/12 08:26:18;;;;;;;19.57;4.17;;;20.10;99.90;;;;;;4999892;28;20124;-82
2022/06/12 08:28:58;;;;;;;23.95;4.43;;;20.00;99.90;;;;;;4992627;28;20050;-83
2022/06/12 08:31:27;;;;;;;17.70;4.18;;;20.10;99.90;;;;;;4976394;28;20050;-83
2022/06/12 08:34:00;;;;;;;18.85;3.72;;;20.30;99.90;;;;;;4976777;28;20548;-83
2022/06/12 08:36:26;;;;;;;24.30;4.57;;;20.30;99.90;;;;;;4975603;28;20490;-84
2022/06/12 08:38:52;;;;;;;17.67;4.28;;;20.30;99.90;;;;;;4976590;28;20514;-83
2022/06/12 08:41:40;;;;;;;15.75;3.17;;;20.40;99.90;;;;;;4976321;28;20133;-82
2022/06/12 08:44:14;;;;;;;13.80;3.10;;;20.60;99.90;;;;;;5012074;28;20123;-82
2022/06/12 08:46:50;;;;;;;17.95;3.65;;;20.90;99.90;;;;;;4995585;28;20138;-82
2022/06/12 08:49:38;;;;;;;19.67;4.13;;;21.00;99.90;;;;;;5014043;28;20049;-80
2022/06/12 08:52:21;;;;;;;18.70;3.88;;;21.00;99.90;;;;;;5013536;28;20038;-82
2022/06/12 08:55:12;;;;;;;21.35;3.83;;;21.40;99.90;;;;;;4995463;28;20037;-82
2022/06/12 08:57:52;;;;;;;16.27;4.00;;;21.50;99.90;;;;;;4997787;28;20144;-81
2022/06/12 09:00:25;;;;;;;19.52;4.57;;;21.40;99.90;;;;;;4995942;28;20145;-82
2022/06/12 09:02:51;;;;;;;20.63;4.20;;;21.50;99.90;;;;;;4995360;28;20034;-82
2022/06/12 09:05:21;;;;;;;20.65;4.03;;;21.80;99.90;;;;;;4995071;28;20281;-82
2022/06/12 09:07:50;;;;;;;20.65;4.05;;;21.90;99.90;;;;;;4994997;28;20038;-83
2022/06/12 09:10:37;;;;;;;16.45;3.83;;;22.10;99.90;;;;;;5011339;28;20034;-82
2022/06/12 09:13:15;;;;;;;16.60;3.80;;;22.10;99.90;;;;;;5012915;28;20056;-82
2022/06/12 09:16:08;;;;;;;15.38;4.03;;;22.00;99.90;;;;;;5011790;28;20045;-83
2022/06/12 09:18:49;;;;;;;19.42;4.30;;;21.70;99.90;;;;;;5011519;28;20124;-82
2022/06/12 09:21:25;;;;;;;19.88;4.30;;;21.40;99.90;;;;;;4994076;28;20057;-82
2022/06/12 09:23:57;;;;;;;15.65;3.58;;;21.00;99.90;;;;;;4995556;28;20104;-82
2022/06/12 09:26:45;;;;;;;15.00;3.33;;;20.80;99.90;;;;;;5011332;28;20104;-82
2022/06/12 09:29:11;;;;;;;15.43;3.40;;;21.00;99.90;;;;;;4995040;28;20046;-83
2022/06/12 09:31:52;;;;;;;15.52;3.17;;;20.90;99.90;;;;;;4994908;28;20049;-82
2022/06/12 09:34:25;;;;;;;16.35;3.55;;;20.90;99.90;;;;;;4994837;28;20388;-83
2022/06/12 09:40:39;;;;;;;13.15;3.45;;;21.30;99.90;;;;;;5011117;28;20132;-83
2022/06/12 09:43:24;;;;;;;13.10;3.17;;;21.50;99.90;;;;;;4994731;28;20042;-83
2022/06/12 09:46:14;;;;;;;17.27;3.35;;;21.60;99.90;;;;;;5012749;28;20100;-81
2022/06/12 09:48:53;;;;;;;14.02;3.30;;;21.40;99.90;;;;;;5011664;28;20052;-81
2022/06/12 09:51:34;;;;;;;10.50;2.80;;;21.50;99.90;;;;;;4994605;28;20034;-83
2022/06/12 09:54:24;;;;;;;14.48;3.08;;;21.40;99.90;;;;;;5011092;28;20092;-82
2022/06/12 09:57:27;;;;;;;15.90;2.90;;;21.30;99.90;;;;;;4995018;28;20042;-82
2022/06/12 10:00:03;;;;;;;10.73;2.40;;;21.40;99.90;;;;;;4954798;28;20095;-83
2022/06/12 10:02:40;;;;;;;9.15;2.00;;;21.50;99.90;;;;;;4939684;28;20063;-83
2022/06/12 10:05:26;;;;;;;7.70;2.30;;;21.80;99.90;;;;;;4954585;28;20482;-83
2022/06/12 10:08:22;;;;;;;13.55;2.60;;;21.90;99.90;;;;;;4954447;28;20039;-81
2022/06/12 10:11:43;;;;;;;7.75;2.10;;;21.90;99.90;;;;;;4942618;28;20198;-82
2022/06/12 10:14:27;;;;;;;9.15;1.95;;;21.50;99.90;;;;;;4959301;28;20431;-82
2022/06/12 10:16:59;;;;;;;9.83;2.00;;;21.20;99.90;;;;;;4960181;28;20501;-79
2022/06/12 10:19:31;;;;;;;7.95;1.92;;;21.20;99.90;;;;;;4960618;28;20078;-79
2022/06/12 10:22:04;;;;;;;9.23;1.80;;;21.50;99.90;;;;;;4958492;28;20051;-82
2022/06/12 10:24:29;;;;;;;6.93;2.03;;;21.70;99.90;;;;;;4958632;28;20059;-82
2022/06/12 10:27:00;;;;;;;6.72;1.92;;;21.80;99.90;;;;;;4942242;28;20138;-82
2022/06/12 10:29:28;;;;;;;11.15;2.00;;;21.60;99.90;;;;;;4981581;28;20077;-83
2022/06/12 10:32:02;;;;;;;5.90;1.65;;;21.80;99.90;;;;;;4982579;28;20051;-81
2022/06/12 10:34:31;;;;;;;8.00;2.00;;;21.80;99.90;;;;;;4982730;28;20055;-81
2022/06/12 10:37:24;;;;;;;8.48;1.90;;;22.10;99.90;;;;;;4983019;28;20046;-82
2022/06/12 10:40:23;;;;;;;7.20;2.00;;;22.50;99.90;;;;;;4976151;28;20047;-82
2022/06/12 10:43:00;;;;;;;10.98;1.95;;;22.10;99.90;;;;;;4958294;28;20038;-83
2022/06/12 10:45:31;;;;;;;8.63;2.10;;;21.60;99.90;;;;;;4990377;28;20089;-83
2022/06/12 10:48:20;;;;;;;8.43;2.03;;;22.00;99.90;;;;;;5013979;28;20081;-82
2022/06/12 10:50:51;;;;;;;9.20;2.00;;;22.20;99.90;;;;;;5013979;28;20046;-82
2022/06/12 10:53:20;;;;;;;10.27;2.65;;;22.40;99.90;;;;;;5014013;28;20073;-82
2022/06/12 10:59:31;;;;;;;6.13;2.05;;;22.20;99.90;;;;;;5015133;28;20045;-83
2022/06/12 11:02:24;;;;;;;9.25;2.35;;;21.60;99.90;;;;;;4997573;28;20037;-83
2022/06/12 11:05:09;;;;;;;7.90;2.20;;;21.20;99.90;;;;;;4997471;28;20133;-81
2022/06/12 11:07:46;;;;;;;6.32;1.90;;;21.40;99.90;;;;;;4996880;28;20108;-83
2022/06/12 11:10:45;;;;;;;6.18;2.08;;;21.30;99.90;;;;;;4997214;28;20052;-81
2022/06/12 11:13:26;;;;;;;9.52;2.28;;;21.90;99.90;;;;;;5013510;28;20476;-81
2022/06/12 11:16:16;;;;;;;8.73;2.30;;;22.00;99.90;;;;;;4997725;28;20038;-82
2022/06/12 11:19:24;;;;;;;6.68;1.90;;;21.90;99.90;;;;;;4997427;28;20042;-82
2022/06/12 11:22:08;;;;;;;8.95;2.35;;;21.90;99.90;;;;;;4996775;28;20400;-81
2022/06/12 11:24:57;;;;;;;7.95;1.98;;;22.00;99.90;;;;;;5013383;28;20054;-83
2022/06/12 11:27:52;;;;;;;11.15;1.95;;;21.90;99.90;;;;;;4997052;28;20156;-83
2022/06/12 11:30:30;;;;;;;7.80;2.03;;;21.80;99.90;;;;;;4988788;28;20050;-82
2022/06/12 11:33:17;;;;;;;8.70;2.13;;;22.00;99.90;;;;;;5013049;28;20037;-82
2022/06/12 11:36:14;;;;;;;9.27;2.72;;;22.10;99.90;;;;;;5014050;28;20050;-82
2022/06/12 11:39:03;;;;;;;11.48;2.20;;;22.40;99.90;;;;;;5012906;28;20097;-83
2022/06/12 11:41:40;;;;;;;9.95;2.03;;;22.80;99.90;;;;;;4996711;28;20075;-82
2022/06/12 11:44:25;;;;;;;8.80;2.70;;;22.90;99.90;;;;;;5014541;28;20042;-80
2022/06/12 11:46:53;;;;;;;7.70;2.00;;;23.00;99.30;;;;;;5017142;28;20052;-80
2022/06/12 11:49:56;;;;;;;6.80;2.10;;;23.10;99.40;;;;;;5012627;28;20175;-82
2022/06/12 11:52:47;;;;;;;4.30;1.63;;;23.10;99.40;;;;;;4997508;28;20046;-82
2022/06/12 11:56:01;;;;;;;11.80;1.80;;;22.90;98.10;;;;;;5013946;28;20185;-80
2022/06/12 11:58:35;;;;;;;7.80;1.70;;;23.30;98.40;;;;;;5006809;28;20062;-81
2022/06/12 12:01:40;;;;;;;7.65;1.83;;;23.30;96.20;;;;;;4998335;28;20054;-81
2022/06/12 12:04:41;;;;;;;6.30;1.70;;;23.40;97.50;;;;;;4993324;28;20113;-82
2022/06/12 12:07:35;;;;;;;7.55;2.50;;;23.40;96.90;;;;;;4983563;28;20064;-83
2022/06/12 12:10:26;;;;;;;7.38;2.05;;;23.50;98.60;;;;;;4996541;28;20180;-82
2022/06/12 12:12:59;;;;;;;12.40;2.20;;;23.00;98.50;;;;;;4996333;28;20112;-83
2022/06/12 12:15:37;;;;;;;6.97;1.67;;;22.40;98.40;;;;;;4979891;28;20034;-83
2022/06/12 12:18:07;;;;;;;11.52;2.20;;;22.30;97.70;;;;;;4996035;28;20057;-83
2022/06/12 12:20:40;;;;;;;10.70;2.40;;;21.90;99.10;;;;;;4997033;28;20038;-83
2022/06/12 12:23:32;;;;;;;8.30;2.28;;;22.10;99.40;;;;;;4995750;28;20046;-82
2022/06/12 12:26:07;;;;;;;9.00;2.08;;;22.40;99.90;;;;;;4995078;28;20049;-83
2022/06/12 12:28:42;;;;;;;8.95;1.98;;;22.70;98.50;;;;;;4995997;28;20054;-82
2022/06/12 12:31:14;;;;;;;6.70;1.67;;;22.90;98.80;;;;;;4995174;28;20038;-83
2022/06/12 12:33:43;;;;;;;6.38;1.80;;;22.70;98.50;;;;;;4995475;28;20127;-82
2022/06/12 12:41:56;;;;;;;8.05;1.90;;;21.90;97.70;;;;;;4996006;28;20068;-82
2022/06/12 12:44:36;;;;;;;4.65;1.63;;;21.60;98.40;;;;;;5012560;28;20489;-82
2022/06/12 12:47:15;;;;;;;6.00;1.92;;;21.30;97.80;;;;;;4996096;28;20145;-83
2022/06/12 12:49:42;;;;;;;10.80;2.03;;;21.90;98.30;;;;;;5011383;28;20049;-83
2022/06/12 12:52:17;;;;;;;7.35;1.90;;;22.40;98.50;;;;;;4995207;28;20111;-83
2022/06/12 12:54:57;;;;;;;9.45;1.88;;;22.30;98.20;;;;;;5011977;28;20948;-83
2022/06/12 12:57:43;;;;;;;11.77;2.10;;;21.80;99.10;;;;;;4995515;28;20116;-83
2022/06/12 13:00:28;;;;;;;7.50;2.20;;;22.60;99.40;;;;;;4995089;28;20151;-82
2022/06/12 13:02:54;;;;;;;7.03;2.08;;;23.30;97.90;;;;;;4995419;28;20084;-83
2022/06/12 13:05:30;;;;;;;8.60;1.90;;;23.00;97.70;;;;;;4994643;28;20088;-83
2022/06/12 13:08:13;;;;;;;8.90;2.05;;;23.00;97.70;;;;;;5011626;28;20049;-83
2022/06/12 13:10:56;;;;;;;9.15;2.30;;;22.60;98.50;;;;;;5012413;28;20046;-81
2022/06/12 13:13:43;;;;;;;11.52;2.63;;;22.80;98.40;;;;;;5015321;28;20140;-80
2022/06/12 13:16:19;;;;;;;10.40;2.20;;;22.60;99.00;;;;;;5013055;28;20052;-83
2022/06/12 13:19:03;;;;;;;11.13;2.38;;;23.20;97.80;;;;;;5011682;28;20046;-83
2022/06/12 13:21:32;;;;;;;7.70;2.35;;;23.30;96.90;;;;;;5010428;28;20056;-82
2022/06/12 13:24:31;;;;;;;6.57;2.10;;;23.70;97.40;;;;;;5011444;28;20108;-82
2022/06/12 13:27:11;;;;;;;8.35;2.10;;;22.90;97.30;;;;;;4978376;28;20404;-82
2022/06/12 13:29:45;;;;;;;6.05;2.08;;;23.20;97.70;;;;;;5027407;28;20125;-83
2022/06/12 13:32:25;;;;;;;6.25;2.08;;;22.80;98.30;;;;;;5027576;28;20099;-83
2022/06/12 13:35:19;;;;;;;13.02;2.97;;;22.90;98.30;;;;;;4977941;28;20042;-83
2022/06/12 13:37:47;;;;;;;7.93;2.33;;;23.30;97.60;;;;;;4951473;29;20114;-83
2022/06/12 13:40:40;;;;;;;9.13;2.55;;;23.60;97.60;;;;;;4935695;29;20047;-82
2022/06/12 13:43:22;;;;;;;10.48;2.35;;;23.60;97.80;;;;;;4934009;29;20090;-82
2022/06/12 13:45:59;;;;;;;8.10;2.35;;;23.10;98.20;;;;;;4952040;29;20063;-82